Terminal Aerodrome Forecast
Issued by NWS

Home | Current Version | Previous Version | Text Only | Print | Product List | Glossary On
Versions: 1 2 3 4 5 6 7 8 9 10 11 12 13 14
380
FTUS43 KGRR 212335
TAFMKG
TAF
KMKG 212335Z 2200/2224 31003KT P6SM -RA SCT100 BKN120
     FM220300 14003KT P6SM -RA OVC050
     FM220800 13004KT P6SM VCSH OVC035
     FM221100 14005KT 4SM BR OVC025
     FM221500 19008KT P6SM OVC025
     FM221800 21007KT P6SM OVC050=

USA.gov is the U.S. government's official web portal to all federal, state and local government web resources and services.